RJCC CLOSE


RJCH CLOSE


RJSS CLOSE


RJSN CLOSE


RJAA CLOSE


RJTT S M1600

ILS Y RWY34L LDG RWY 34L DEP RWY 05 DEP FREQ 126.0, RWY04/22 AND 16L/34R CLSD, M 021600Z 01009KT 330V040 30KM BKN050SC 08/02 Q1026/A3030= Q/THREE ZERO THREE ZERO STP


RJGG H M1600

ILS Z RWY36 USING RWY 36 DEP FREQ 120.0 M 021600Z AUTO 04008KT 9999 NCD 06/02 Q1026/A3031= Q/THREE ZERO THREE ONE STP


RJGG H M1600

RJOO CLOSE


RJGG H M1600

RJBE CLOSE


RJBB H M1600

ILS Y RWY06L USING RWY 06L DEP FREQ 120.85. RWY 06R/24L CLSD DUE TO MAINT UNTIL 2130Z. M 021600Z AUTO 09005KT 9999 NCD 06/01 Q1026/A3032= Q/THREE ZERO THREE TWO STP


RJBB H M1600

RJOA CLOSE


RJBB H M1600

RJOT CLOSE


RJBB H M1600

RJOM CLOSE


RJBB H M1600

RJOK CLOSE


RJBB H M1600

RJFF CLOSE


RJBB H M1600

RJFO CLOSE


RJBB H M1600

RJFU CLOSE


RJBB H M1600

RJFT CLOSE


RJBB H M1600

RJFM CLOSE


RJBB H M1600

RJFK CLOSE


ROAH C M1600

ILS Z RWY36L USING RWY 36L DEP FREQ 119.1 335.8 RWY 18L/36R CLSD M 021600Z AUTO 10018KT 9999 SCT013// SCT016// BKN023// 21/19 Q1018/A3008= Q/THREE ZERO ZERO EIGHT STP


ROAH C M1600

ROIG CLOSE